Time;durP1;ratioP1;P1;durP2;ratioP2;P2;SDS_P1;SDS_P2;PMS_P1;PMS_P2;Temp;Humidity;BMP_temperature;BMP_pressure;BME280_temperature;BME280_humidity;BME280_pressure;Samples;Min_cycle;Max_cycle;Signal;HPM_P1;HPM_P2
2023/12/02 00:02:06;;;;;;;;;;;;;;;;;;4937841;29;19918;-91
2023/12/02 00:04:32;;;;;;;;;;;;;;;;;;4937792;29;19977;-94
2023/12/02 00:06:58;;;;;;;;;;;;;;;;;;4951809;28;20430;-92
2023/12/02 00:09:24;;;;;;;;;;;;;;;;;;4935574;28;20013;-92
2023/12/02 00:11:50;;;;;;;;;;;;;;;;;;4936165;29;19921;-92
2023/12/02 00:14:16;;;;;;;;;;;;;;;;;;4939096;28;19923;-92
2023/12/02 00:16:42;;;;;;;;;;;;;;;;;;4939117;29;19950;-92
2023/12/02 00:19:08;;;;;;;;;;;;;;;;;;4934937;29;20013;-93
2023/12/02 00:21:34;;;;;;;;;;;;;;;;;;4936511;29;20050;-92
2023/12/02 00:24:00;;;;;;;;;;;;;;;;;;4935185;28;19918;-93
2023/12/02 00:26:25;;;;;;;;;;;;;;;;;;4937120;29;19922;-92
2023/12/02 00:28:51;;;;;;;;;;;;;;;;;;4937247;28;19930;-93
2023/12/02 00:31:17;;;;;;;;;;;;;;;;;;4967585;28;19961;-93
2023/12/02 00:33:43;;;;;;;;;;;;;;;;;;4937400;29;20363;-93
2023/12/02 00:36:09;;;;;;;;;;;;;;;;;;4964115;28;19935;-94
2023/12/02 00:38:35;;;;;;;;;;;;;;;;;;4935085;29;19915;-94
2023/12/02 00:41:01;;;;;;;;;;;;;;;;;;4938387;29;20012;-93
2023/12/02 00:43:27;;;;;;;;;;;;;;;;;;4957191;28;19974;-95
2023/12/02 00:45:53;;;;;;;;;;;;;;;;;;4937372;29;20009;-93
2023/12/02 00:48:19;;;;;;;;;;;;;;;;;;4946194;28;19918;-94
2023/12/02 00:50:45;;;;;;;;;;;;;;;;;;4940766;29;19918;-93
2023/12/02 00:53:11;;;;;;;;;;;;;;;;;;4936180;29;19922;-93
2023/12/02 00:55:37;;;;;;;;;;;;;;;;;;4966526;28;19918;-95
2023/12/02 00:58:03;;;;;;;;;;;;;;;;;;4936956;28;19978;-95
2023/12/02 01:00:29;;;;;;;;;;;;;;;;;;4936948;29;19966;-95
2023/12/02 01:02:55;;;;;;;;;;;;;;;;;;4936411;29;19922;-96
2023/12/02 01:05:21;;;;;;;;;;;;;;;;;;4964456;28;19922;-96
2023/12/02 01:07:47;;;;;;;;;;;;;;;;;;4937699;29;19950;-93
2023/12/02 01:10:13;;;;;;;;;;;;;;;;;;4933699;29;19982;-96
2023/12/02 01:12:39;;;;;;;;;;;;;;;;;;4932932;29;19922;-96
2023/12/02 01:15:05;;;;;;;;;;;;;;;;;;4937703;29;20382;-96
2023/12/02 01:17:31;;;;;;;;;;;;;;;;;;4936153;29;19932;-96
2023/12/02 01:19:57;;;;;;;;;;;;;;;;;;4935230;29;20007;-95
2023/12/02 01:22:23;;;;;;;;;;;;;;;;;;4939042;29;19914;-95
2023/12/02 01:24:49;;;;;;;;;;;;;;;;;;4963598;28;19925;-92
2023/12/02 01:27:15;;;;;;;;;;;;;;;;;;4937142;29;19930;-94
2023/12/02 01:29:41;;;;;;;;;;;;;;;;;;4950352;28;19957;-92
2023/12/02 01:32:06;;;;;;;;;;;;;;;;;;4952279;28;19914;-94
2023/12/02 01:34:32;;;;;;;;;;;;;;;;;;4939710;29;19918;-95
2023/12/02 01:36:58;;;;;;;;;;;;;;;;;;4936053;29;19934;-94
2023/12/02 01:39:24;;;;;;;;;;;;;;;;;;4934134;29;19915;-93
2023/12/02 01:41:50;;;;;;;;;;;;;;;;;;4937538;29;19922;-94
2023/12/02 01:44:16;;;;;;;;;;;;;;;;;;4936477;29;19918;-95
2023/12/02 01:46:42;;;;;;;;;;;;;;;;;;4935770;29;19923;-95
2023/12/02 01:49:08;;;;;;;;;;;;;;;;;;4934387;28;19986;-94
2023/12/02 01:51:34;;;;;;;;;;;;;;;;;;4935526;29;19998;-94
2023/12/02 01:54:00;;;;;;;;;;;;;;;;;;4951501;28;20018;-94
2023/12/02 01:56:26;;;;;;;;;;;;;;;;;;4935799;29;19933;-90
2023/12/02 01:58:52;;;;;;;;;;;;;;;;;;4934840;28;19915;-90
2023/12/02 02:01:18;;;;;;;;;;;;;;;;;;4933096;29;19957;-90
2023/12/02 02:03:44;;;;;;;;;;;;;;;;;;4934001;28;19957;-91
2023/12/02 02:06:10;;;;;;;;;;;;;;;;;;4934477;29;19915;-90
2023/12/02 02:08:36;;;;;;;;;;;;;;;;;;4932437;29;20021;-89
2023/12/02 02:11:02;;;;;;;;;;;;;;;;;;4946472;28;20348;-91
2023/12/02 02:13:28;;;;;;;;;;;;;;;;;;4934226;29;19918;-91
2023/12/02 02:15:54;;;;;;;;;;;;;;;;;;4936684;28;20014;-90
2023/12/02 02:18:20;;;;;;;;;;;;;;;;;;4936507;29;20009;-90
2023/12/02 02:20:46;;;;;;;;;;;;;;;;;;4935371;29;19969;-90
2023/12/02 02:23:12;;;;;;;;;;;;;;;;;;4933778;29;19926;-90
2023/12/02 02:25:38;;;;;;;;;;;;;;;;;;4936474;29;19933;-90
2023/12/02 02:28:03;;;;;;;;;;;;;;;;;;4933880;29;19930;-90
2023/12/02 02:30:30;;;;;;;;;;;;;;;;;;4935222;29;19919;-90
2023/12/02 02:32:56;;;;;;;;;;;;;;;;;;4952999;28;20016;-91
2023/12/02 02:35:22;;;;;;;;;;;;;;;;;;4935179;29;20618;-90
2023/12/02 02:37:48;;;;;;;;;;;;;;;;;;4937037;28;19919;-90
2023/12/02 02:40:14;;;;;;;;;;;;;;;;;;4936137;29;20382;-90
2023/12/02 02:42:41;;;;;;;;;;;;;;;;;;4936887;28;20397;-90
2023/12/02 02:45:07;;;;;;;;;;;;;;;;;;4937636;29;19914;-91
2023/12/02 02:47:33;;;;;;;;;;;;;;;;;;4937135;29;19921;-91
2023/12/02 02:49:59;;;;;;;;;;;;;;;;;;4939195;29;19923;-91
2023/12/02 02:52:25;;;;;;;;;;;;;;;;;;4934960;29;19965;-90
2023/12/02 02:54:51;;;;;;;;;;;;;;;;;;4932342;29;19922;-89
2023/12/02 02:57:17;;;;;;;;;;;;;;;;;;4934931;29;20359;-90
2023/12/02 02:59:43;;;;;;;;;;;;;;;;;;4935776;29;19915;-91
2023/12/02 03:02:09;;;;;;;;;;;;;;;;;;4933497;29;19930;-92
2023/12/02 03:04:34;;;;;;;;;;;;;;;;;;4939431;29;19923;-95
2023/12/02 03:07:00;;;;;;;;;;;;;;;;;;4933494;28;19957;-94
2023/12/02 03:09:30;;;;;;;;;;;;;;;;;;4934696;28;19926;-96
2023/12/02 03:11:59;;;;;;;;;;;;;;;;;;4933148;29;19990;-95
2023/12/02 03:14:25;;;;;;;;;;;;;;;;;;4933925;29;19915;-96
2023/12/02 03:16:51;;;;;;;;;;;;;;;;;;4933600;29;20374;-93
2023/12/02 03:19:17;;;;;;;;;;;;;;;;;;4949671;29;19918;-95
2023/12/02 03:21:42;;;;;;;;;;;;;;;;;;4931818;29;20359;-96
2023/12/02 03:24:09;;;;;;;;;;;;;;;;;;4934747;29;20029;-96
2023/12/02 03:26:35;;;;;;;;;;;;;;;;;;4934327;29;19918;-96
2023/12/02 03:29:01;;;;;;;;;;;;;;;;;;4935499;29;19927;-96
2023/12/02 03:31:27;;;;;;;;;;;;;;;;;;4935292;29;19949;-96
2023/12/02 03:33:53;;;;;;;;;;;;;;;;;;4935484;29;19918;-95
2023/12/02 03:36:19;;;;;;;;;;;;;;;;;;4934941;29;19923;-96
2023/12/02 03:38:45;;;;;;;;;;;;;;;;;;4931895;29;19972;-95
2023/12/02 03:41:11;;;;;;;;;;;;;;;;;;4935705;29;19977;-94
2023/12/02 03:43:37;;;;;;;;;;;;;;;;;;4947404;28;20403;-96
2023/12/02 03:46:03;;;;;;;;;;;;;;;;;;4932615;29;19922;-95
2023/12/02 03:48:29;;;;;;;;;;;;;;;;;;4944823;28;20001;-95
2023/12/02 03:50:55;;;;;;;;;;;;;;;;;;4929708;29;19946;-94
2023/12/02 03:53:30;;;;;;;;;;;;;;;;;;4947554;28;20295;-94
2023/12/02 03:55:56;;;;;;;;;;;;;;;;;;4933189;28;19919;-95
2023/12/02 03:58:22;;;;;;;;;;;;;;;;;;4929127;29;19925;-95
2023/12/02 04:00:48;;;;;;;;;;;;;;;;;;4933453;28;19919;-93
2023/12/02 04:03:14;;;;;;;;;;;;;;;;;;4933565;29;19929;-95
2023/12/02 04:05:40;;;;;;;;;;;;;;;;;;4934632;29;19914;-95
2023/12/02 04:08:09;;;;;;;;;;;;;;;;;;4935319;29;19922;-94
2023/12/02 04:10:35;;;;;;;;;;;;;;;;;;4930186;29;19919;-96
2023/12/02 04:13:01;;;;;;;;;;;;;;;;;;4932077;29;19985;-96
2023/12/02 04:15:27;;;;;;;;;;;;;;;;;;4933555;29;19966;-91
2023/12/02 04:17:53;;;;;;;;;;;;;;;;;;4939432;29;19976;-91
2023/12/02 04:20:21;;;;;;;;;;;;;;;;;;4938013;29;20057;-91
2023/12/02 04:22:47;;;;;;;;;;;;;;;;;;4937723;29;19923;-91
2023/12/02 04:25:13;;;;;;;;;;;;;;;;;;4938488;29;19977;-93
2023/12/02 04:27:41;;;;;;;;;;;;;;;;;;4955692;28;20071;-91
2023/12/02 04:30:08;;;;;;;;;;;;;;;;;;4936791;28;19921;-91
2023/12/02 04:32:34;;;;;;;;;;;;;;;;;;4937379;29;19929;-91
2023/12/02 04:35:00;;;;;;;;;;;;;;;;;;4933627;29;20308;-92
2023/12/02 04:37:26;;;;;;;;;;;;;;;;;;4935794;29;20434;-90
2023/12/02 04:39:52;;;;;;;;;;;;;;;;;;4933690;29;19990;-90
2023/12/02 04:42:18;;;;;;;;;;;;;;;;;;4938813;29;19914;-91
2023/12/02 04:44:44;;;;;;;;;;;;;;;;;;4931858;28;19925;-92
2023/12/02 04:47:10;;;;;;;;;;;;;;;;;;4935527;29;19923;-91
2023/12/02 04:49:36;;;;;;;;;;;;;;;;;;4936014;28;19914;-91
2023/12/02 04:52:02;;;;;;;;;;;;;;;;;;4935421;29;19943;-90
2023/12/02 04:54:28;;;;;;;;;;;;;;;;;;4934382;29;20009;-90
2023/12/02 04:56:54;;;;;;;;;;;;;;;;;;4935821;29;20009;-90
2023/12/02 04:59:20;;;;;;;;;;;;;;;;;;4951626;29;19925;-90
2023/12/02 05:01:46;;;;;;;;;;;;;;;;;;4931042;29;19949;-90
2023/12/02 05:04:12;;;;;;;;;;;;;;;;;;4947684;28;19922;-90
2023/12/02 05:06:38;;;;;;;;;;;;;;;;;;4934965;29;20004;-91
2023/12/02 05:09:06;;;;;;;;;;;;;;;;;;4936450;29;19995;-90
2023/12/02 05:11:32;;;;;;;;;;;;;;;;;;4934864;29;19961;-91
2023/12/02 05:13:58;;;;;;;;;;;;;;;;;;4936232;29;19954;-92
2023/12/02 05:16:24;;;;;;;;;;;;;;;;;;4934488;29;19957;-90
2023/12/02 05:18:50;;;;;;;;;;;;;;;;;;4936296;29;19918;-91
2023/12/02 05:21:16;;;;;;;;;;;;;;;;;;4946978;28;20351;-92
2023/12/02 05:23:42;;;;;;;;;;;;;;;;;;4933921;29;20402;-90
2023/12/02 05:26:08;;;;;;;;;;;;;;;;;;4954110;29;19922;-96
2023/12/02 05:28:34;;;;;;;;;;;;;;;;;;4936431;29;19942;-96
2023/12/02 05:31:00;;;;;;;;;;;;;;;;;;4938405;29;19925;-96
2023/12/02 05:33:26;;;;;;;;;;;;;;;;;;4937713;28;20270;-95
2023/12/02 05:35:52;;;;;;;;;;;;;;;;;;4938230;29;19919;-96
2023/12/02 05:38:17;;;;;;;;;;;;;;;;;;4933902;29;19932;-96
2023/12/02 05:40:43;;;;;;;;;;;;;;;;;;4936435;29;19952;-95
2023/12/02 05:43:09;;;;;;;;;;;;;;;;;;4935010;29;19922;-96
2023/12/02 05:45:35;;;;;;;;;;;;;;;;;;4938575;29;19957;-96
2023/12/02 05:48:01;;;;;;;;;;;;;;;;;;4935155;28;19972;-96
2023/12/02 05:50:27;;;;;;;;;;;;;;;;;;4940091;29;20391;-96
2023/12/02 05:52:53;;;;;;;;;;;;;;;;;;4936270;28;19922;-96
2023/12/02 05:55:19;;;;;;;;;;;;;;;;;;4938693;29;20685;-96
2023/12/02 05:57:45;;;;;;;;;;;;;;;;;;4937804;28;19926;-95
2023/12/02 06:00:11;;;;;;;;;;;;;;;;;;4939006;29;20421;-96
2023/12/02 06:02:37;;;;;;;;;;;;;;;;;;4934644;29;19919;-95
2023/12/02 06:05:03;;;;;;;;;;;;;;;;;;4934413;29;19921;-96
2023/12/02 06:07:29;;;;;;;;;;;;;;;;;;4933176;29;19922;-96
2023/12/02 06:09:55;;;;;;;;;;;;;;;;;;4934035;29;21355;-94
2023/12/02 06:12:21;;;;;;;;;;;;;;;;;;4934487;29;20326;-96
2023/12/02 06:14:47;;;;;;;;;;;;;;;;;;4930173;29;19914;-95
2023/12/02 06:17:14;;;;;;;;;;;;;;;;;;4933718;28;20390;-96
2023/12/02 06:19:40;;;;;;;;;;;;;;;;;;4936450;29;19965;-96
2023/12/02 06:22:06;;;;;;;;;;;;;;;;;;4937436;28;20037;-96
2023/12/02 06:24:32;;;;;;;;;;;;;;;;;;4936760;29;19982;-94
2023/12/02 06:26:58;;;;;;;;;;;;;;;;;;4954022;28;19926;-96
2023/12/02 06:29:24;;;;;;;;;;;;;;;;;;4936500;29;19914;-96
2023/12/02 06:31:50;;;;;;;;;;;;;;;;;;4935492;28;19918;-95
2023/12/02 06:34:23;;;;;;;;;;;;;;;;;;4942554;29;19923;-96
2023/12/02 06:36:49;;;;;;;;;;;;;;;;;;4934096;29;19919;-96
2023/12/02 06:39:15;;;;;;;;;;;;;;;;;;4937176;29;19915;-96
2023/12/02 06:41:41;;;;;;;;;;;;;;;;;;4934933;29;19915;-96
2023/12/02 06:44:07;;;;;;;;;;;;;;;;;;4937053;29;19966;-95
2023/12/02 06:46:33;;;;;;;;;;;;;;;;;;4934679;29;20375;-90
2023/12/02 06:48:59;;;;;;;;;;;;;;;;;;4931529;29;19914;-90
2023/12/02 06:51:28;;;;;;;;;;;;;;;;;;4934782;29;19954;-90
2023/12/02 06:53:54;;;;;;;;;;;;;;;;;;4934344;29;19922;-90
2023/12/02 06:56:21;;;;;;;;;;;;;;;;;;4933692;29;19933;-91
2023/12/02 06:58:47;;;;;;;;;;;;;;;;;;4935434;29;19926;-90
2023/12/02 07:01:13;;;;;;;;;;;;;;;;;;4932567;29;20417;-90
2023/12/02 07:03:39;;;;;;;;;;;;;;;;;;4933503;29;19914;-91
2023/12/02 07:06:05;;;;;;;;;;;;;;;;;;4935375;29;19923;-89
2023/12/02 07:08:31;;;;;;;;;;;;;;;;;;4933049;28;19948;-90
2023/12/02 07:10:57;;;;;;;;;;;;;;;;;;4934524;29;19919;-90
2023/12/02 07:13:22;;;;;;;;;;;;;;;;;;4933403;29;19977;-90
2023/12/02 07:15:48;;;;;;;;;;;;;;;;;;4934169;29;19914;-91
2023/12/02 07:18:14;;;;;;;;;;;;;;;;;;4947807;28;19926;-90
2023/12/02 07:20:40;;;;;;;;;;;;;;;;;;4933095;29;19944;-90
2023/12/02 07:23:06;;;;;;;;;;;;;;;;;;4945754;28;19918;-90
2023/12/02 07:25:33;;;;;;;;;;;;;;;;;;4934021;29;19921;-91
2023/12/02 07:27:59;;;;;;;;;;;;;;;;;;4939535;29;20478;-92
2023/12/02 07:30:25;;;;;;;;;;;;;;;;;;4933289;29;19914;-90
2023/12/02 07:32:51;;;;;;;;;;;;;;;;;;4933148;29;19925;-90
2023/12/02 07:35:17;;;;;;;;;;;;;;;;;;4934510;29;19923;-90
2023/12/02 07:37:47;;;;;;;;;;;;;;;;;;4936074;28;19922;-91
2023/12/02 07:40:13;;;;;;;;;;;;;;;;;;4934273;29;20386;-91
2023/12/02 07:42:39;;;;;;;;;;;;;;;;;;4935872;29;19919;-90
2023/12/02 07:45:05;;;;;;;;;;;;;;;;;;4933139;29;19923;-90
2023/12/02 07:47:31;;;;;;;;;;;;;;;;;;4936635;29;19918;-91
2023/12/02 07:49:57;;;;;;;;;;;;;;;;;;4940254;29;20391;-90
2023/12/02 07:52:23;;;;;;;;;;;;;;;;;;4956803;28;19929;-91
2023/12/02 07:54:49;;;;;;;;;;;;;;;;;;4937654;29;19915;-94
2023/12/02 07:57:15;;;;;;;;;;;;;;;;;;4937385;28;20810;-94
2023/12/02 07:59:41;;;;;;;;;;;;;;;;;;4940568;29;19921;-94
2023/12/02 08:02:07;;;;;;;;;;;;;;;;;;4953544;28;19915;-94
2023/12/02 08:04:33;;;;;;;;;;;;;;;;;;4937966;29;19921;-93
2023/12/02 08:06:59;;;;;;;;;;;;;;;;;;4935594;29;20005;-94
2023/12/02 08:09:25;;;;;;;;;;;;;;;;;;4937615;29;19957;-95
2023/12/02 08:11:52;;;;;;;;;;;;;;;;;;4935330;29;19943;-94
2023/12/02 08:14:18;;;;;;;;;;;;;;;;;;4939841;29;19922;-96
2023/12/02 08:16:44;;;;;;;;;;;;;;;;;;4939132;28;20366;-95
2023/12/02 08:19:10;;;;;;;;;;;;;;;;;;4940081;29;19925;-96
2023/12/02 08:21:37;;;;;;;;;;;;;;;;;;4938462;28;19919;-96
2023/12/02 08:24:06;;;;;;;;;;;;;;;;;;4938045;29;19919;-96
2023/12/02 08:26:32;;;;;;;;;;;;;;;;;;4935945;29;20369;-96
2023/12/02 08:28:58;;;;;;;;;;;;;;;;;;4937070;29;20020;-95
2023/12/02 08:31:33;;;;;;;;;;;;;;;;;;4935951;28;20671;-95
2023/12/02 08:33:59;;;;;;;;;;;;;;;;;;4938993;29;19918;-96
2023/12/02 08:36:25;;;;;;;;;;;;;;;;;;4931365;29;19930;-95
2023/12/02 08:38:50;;;;;;;;;;;;;;;;;;4947077;28;20383;-95
2023/12/02 08:41:16;;;;;;;;;;;;;;;;;;4943089;29;19926;-95
2023/12/02 08:43:42;;;;;;;;;;;;;;;;;;4950496;28;19918;-96
2023/12/02 08:46:08;;;;;;;;;;;;;;;;;;4936609;29;19922;-96
2023/12/02 08:48:34;;;;;;;;;;;;;;;;;;4938029;28;19959;-94
2023/12/02 08:51:00;;;;;;;;;;;;;;;;;;4945410;29;19914;-93
2023/12/02 08:53:26;;;;;;;;;;;;;;;;;;4940114;29;19969;-92
2023/12/02 08:55:52;;;;;;;;;;;;;;;;;;4939580;29;19937;-95
2023/12/02 08:58:18;;;;;;;;;;;;;;;;;;4935642;28;19926;-95
2023/12/02 09:00:44;;;;;;;;;;;;;;;;;;4940993;29;19914;-95
2023/12/02 09:03:10;;;;;;;;;;;;;;;;;;4938449;29;19922;-94
2023/12/02 09:05:36;;;;;;;;;;;;;;;;;;4938571;29;20391;-96
2023/12/02 09:08:03;;;;;;;;;;;;;;;;;;4941528;29;19938;-96
2023/12/02 09:10:29;;;;;;;;;;;;;;;;;;4940774;29;19922;-96
2023/12/02 09:12:55;;;;;;;;;;;;;;;;;;4942381;29;19926;-95
2023/12/02 09:15:24;;;;;;;;;;;;;;;;;;4940113;29;19925;-96
2023/12/02 09:17:51;;;;;;;;;;;;;;;;;;4948837;29;19923;-96
2023/12/02 09:20:17;;;;;;;;;;;;;;;;;;4961771;29;20773;-95
2023/12/02 09:22:44;;;;;;;;;;;;;;;;;;4943606;29;19934;-92
2023/12/02 09:25:10;;;;;;;;;;;;;;;;;;4938244;29;19918;-90
2023/12/02 09:27:36;;;;;;;;;;;;;;;;;;4931379;29;20013;-91
2023/12/02 09:30:02;;;;;;;;;;;;;;;;;;4951095;28;20014;-90
2023/12/02 09:32:28;;;;;;;;;;;;;;;;;;4935028;29;19925;-90
2023/12/02 09:34:55;;;;;;;;;;;;;;;;;;4935693;29;19915;-89
2023/12/02 09:37:21;;;;;;;;;;;;;;;;;;4934636;29;20400;-91
2023/12/02 09:39:47;;;;;;;;;;;;;;;;;;4933863;29;19919;-90
2023/12/02 09:42:13;;;;;;;;;;;;;;;;;;4937046;29;19985;-90
2023/12/02 09:44:39;;;;;;;;;;;;;;;;;;4949284;28;20005;-90
2023/12/02 09:47:05;;;;;;;;;;;;;;;;;;4936564;28;19934;-91
2023/12/02 09:49:31;;;;;;;;;;;;;;;;;;4931913;28;19914;-91
2023/12/02 09:51:57;;;;;;;;;;;;;;;;;;4940167;29;20037;-91
2023/12/02 09:54:23;;;;;;;;;;;;;;;;;;4938234;29;19920;-90
2023/12/02 09:56:49;;;;;;;;;;;;;;;;;;4936371;29;20017;-91
2023/12/02 09:59:15;;;;;;;;;;;;;;;;;;4936143;29;20057;-91
2023/12/02 10:02:26;;;;;;;;;;;;;;;;;;4932528;28;20036;-90
2023/12/02 10:04:33;;;;;;;;;;;;;;;;;;4950252;28;19966;-93
2023/12/02 10:06:59;;;;;;;;;;;;;;;;;;4941682;29;19914;-94
2023/12/02 10:09:25;;;;;;;;;;;;;;;;;;4946500;28;19925;-94
2023/12/02 10:14:28;;;;;;;;;;;;;;;;;;4975147;23;19938;-92
2023/12/02 10:16:54;;;;;;;;;;;;;;;;;;4955482;28;19934;-93
2023/12/02 10:19:23;;;;;;;;;;;;;;;;;;4963846;28;19933;-92
2023/12/02 10:21:50;;;;;;;;;;;;;;;;;;4960205;28;19925;-92
2023/12/02 10:24:29;;;;;;;;;;;;;;;;;;;;;
2023/12/02 10:26:55;;;;;;;;;;;;;;;;;;4993520;28;19934;-92
2023/12/02 10:29:22;;;;;;;;;;;;;;;;;;4934444;29;19899;-93
2023/12/02 10:31:49;;;;;;;;;;;;;;;;;;4922265;29;19930;-93
2023/12/02 10:34:17;;;;;;;;;;;;;;;;;;4908853;29;19944;-93
2023/12/02 10:36:54;;;;;;;;;;;;;;;;;;4932845;29;19908;-92
2023/12/02 10:39:24;;;;;;;;;;;;;;;;;;4912420;29;19915;-92
2023/12/02 10:41:49;;;;;;;;;;;;;;;;;;4921472;29;19943;-91
2023/12/02 10:44:24;;;;;;;;;;;;;;;;;;4909833;29;19961;-92
2023/12/02 10:47:04;;;;;;;;;;;;;;;;;;;;;
2023/12/02 10:49:31;;;;;;;;;;;;;;;;;;4923270;29;19970;-91
2023/12/02 10:52:00;;;;;;;;;;;;;;;;;;4934964;29;19899;-93
2023/12/02 10:54:29;;;;;;;;;;;;;;;;;;4916407;29;19915;-92
2023/12/02 10:56:55;;;;;;;;;;;;;;;;;;4933010;29;19968;-91
2023/12/02 10:59:21;;;;;;;;;;;;;;;;;;4925804;28;19923;-92
2023/12/02 11:01:56;;;;;;;;;;;;;;;;;;4962278;28;19918;-91
2023/12/02 11:04:23;;;;;;;;;;;;;;;;;;4970517;28;19973;-93
2023/12/02 11:06:49;;;;;;;;;;;;;;;;;;4964432;28;20363;-93
2023/12/02 11:09:16;;;;;;;;;;;;;;;;;;4952240;28;19934;-92
2023/12/02 11:11:42;;;;;;;;;;;;;;;;;;4947866;28;19918;-91
2023/12/02 11:14:08;;;;;;;;;;;;;;;;;;4950428;28;19907;-92
2023/12/02 11:16:34;;;;;;;;;;;;;;;;;;4940743;29;19906;-92
2023/12/02 11:19:01;;;;;;;;;;;;;;;;;;4966466;28;20199;-93
2023/12/02 11:21:35;;;;;;;;;;;;;;;;;;4962586;28;19914;-92
2023/12/02 11:24:12;;;;;;;;;;;;;;;;;;;;;
2023/12/02 11:26:50;;;;;;;;;;;;;;;;;;;;;
2023/12/02 11:29:25;;;;;;;;;;;;;;;;;;4967598;28;19988;-92
2023/12/02 11:32:00;;;;;;;;;;;;;;;;;;4945318;28;19925;-92
2023/12/02 11:34:26;;;;;;;;;;;;;;;;;;4955771;28;19906;-92
2023/12/02 11:37:00;;;;;;;;;;;;;;;;;;4960539;28;19956;-92
2023/12/02 11:45:20;;;;;;;;;;;;;;;;;;4917953;29;19923;-92
2023/12/02 11:47:50;;;;;;;;;;;;;;;;;;4953112;29;20014;-93
2023/12/02 11:50:26;;;;;;;;;;;;;;;;;;4935212;29;19958;-92
2023/12/02 11:53:01;;;;;;;;;;;;;;;;;;4934743;29;19911;-91
2023/12/02 11:55:30;;;;;;;;;;;;;;;;;;4938385;29;19914;-92
2023/12/02 11:57:56;;;;;;;;;;;;;;;;;;4931505;29;19914;-92
2023/12/02 12:00:33;;;;;;;;;;;;;;;;;;;;;
2023/12/02 12:03:08;;;;;;;;;;;;;;;;;;4950796;28;19988;-92
2023/12/02 12:05:34;;;;;;;;;;;;;;;;;;4951597;28;19922;-92
2023/12/02 12:08:18;;;;;;;;;;;;;;;;;;4954267;28;19919;-94
2023/12/02 12:10:46;;;;;;;;;;;;;;;;;;4957438;28;19917;-92
2023/12/02 12:13:13;;;;;;;;;;;;;;;;;;4939546;28;19977;-90
2023/12/02 12:15:39;;;;;;;;;;;;;;;;;;4938105;29;20021;-93
2023/12/02 12:18:10;;;;;;;;;;;;;;;;;;4941701;28;20405;-93
2023/12/02 12:20:36;;;;;;;;;;;;;;;;;;4948430;28;19915;-93
2023/12/02 12:23:02;;;;;;;;;;;;;;;;;;4941700;28;19923;-93
2023/12/02 12:25:29;;;;;;;;;;;;;;;;;;4939742;28;19929;-93
2023/12/02 12:27:55;;;;;;;;;;;;;;;;;;4941109;28;20013;-92
2023/12/02 12:30:21;;;;;;;;;;;;;;;;;;4936399;28;19918;-93
2023/12/02 12:32:47;;;;;;;;;;;;;;;;;;4954582;28;19937;-93
2023/12/02 12:35:14;;;;;;;;;;;;;;;;;;4941662;28;19922;-93
2023/12/02 12:37:40;;;;;;;;;;;;;;;;;;4940302;28;19919;-93
2023/12/02 12:40:06;;;;;;;;;;;;;;;;;;4934840;28;19922;-93
2023/12/02 12:42:32;;;;;;;;;;;;;;;;;;4953253;28;20326;-93
2023/12/02 12:44:59;;;;;;;;;;;;;;;;;;4936368;28;19922;-93
2023/12/02 12:47:27;;;;;;;;;;;;;;;;;;4940549;28;19914;-93
2023/12/02 12:49:54;;;;;;;;;;;;;;;;;;4952792;28;20009;-92
2023/12/02 12:52:20;;;;;;;;;;;;;;;;;;4937013;28;20390;-92
2023/12/02 12:54:45;;;;;;;;;;;;;;;;;;4936209;28;20025;-93
2023/12/02 12:57:12;;;;;;;;;;;;;;;;;;4933170;28;19926;-92
2023/12/02 12:59:37;;;;;;;;;;;;;;;;;;4945788;28;19953;-93
2023/12/02 13:02:03;;;;;;;;;;;;;;;;;;4934695;28;19969;-93
2023/12/02 13:04:29;;;;;;;;;;;;;;;;;;4932670;28;19982;-93
2023/12/02 13:06:55;;;;;;;;;;;;;;;;;;4940697;28;19968;-90
2023/12/02 13:09:21;;;;;;;;;;;;;;;;;;4935987;29;19923;-92
2023/12/02 13:11:47;;;;;;;;;;;;;;;;;;4934678;28;19914;-90
2023/12/02 13:14:13;;;;;;;;;;;;;;;;;;4937790;28;19922;-91
2023/12/02 13:16:39;;;;;;;;;;;;;;;;;;4935363;29;19977;-91
2023/12/02 13:19:05;;;;;;;;;;;;;;;;;;4938704;28;19938;-92
2023/12/02 13:21:32;;;;;;;;;;;;;;;;;;4932106;28;19922;-90
2023/12/02 13:23:58;;;;;;;;;;;;;;;;;;4936751;28;20228;-90
2023/12/02 13:26:24;;;;;;;;;;;;;;;;;;4938652;28;20678;-91
2023/12/02 13:28:50;;;;;;;;;;;;;;;;;;4932217;28;19914;-91
2023/12/02 13:31:16;;;;;;;;;;;;;;;;;;4935443;28;19918;-90
2023/12/02 13:33:42;;;;;;;;;;;;;;;;;;4942243;28;20010;-91
2023/12/02 13:36:08;;;;;;;;;;;;;;;;;;4938583;28;19918;-91
2023/12/02 13:38:34;;;;;;;;;;;;;;;;;;4937929;28;19922;-91
2023/12/02 13:41:00;;;;;;;;;;;;;;;;;;4937173;29;19915;-91
2023/12/02 13:43:26;;;;;;;;;;;;;;;;;;4935862;28;20535;-91
2023/12/02 13:45:52;;;;;;;;;;;;;;;;;;4931272;29;19915;-90
2023/12/02 13:48:18;;;;;;;;;;;;;;;;;;4935403;28;20381;-91
2023/12/02 13:50:47;;;;;;;;;;;;;;;;;;4934154;29;19922;-91
2023/12/02 13:53:13;;;;;;;;;;;;;;;;;;4934969;29;19919;-92
2023/12/02 13:55:39;;;;;;;;;;;;;;;;;;4935395;28;19925;-92
2023/12/02 13:58:05;;;;;;;;;;;;;;;;;;4933002;29;19925;-91
2023/12/02 14:00:31;;;;;;;;;;;;;;;;;;4934740;29;19915;-92
2023/12/02 14:02:57;;;;;;;;;;;;;;;;;;4933263;28;19922;-92
2023/12/02 14:05:23;;;;;;;;;;;;;;;;;;4945449;28;19914;-91
2023/12/02 14:07:49;;;;;;;;;;;;;;;;;;4935745;28;19922;-92
2023/12/02 14:10:15;;;;;;;;;;;;;;;;;;4936039;28;19921;-92
2023/12/02 14:12:40;;;;;;;;;;;;;;;;;;4935207;29;19918;-91
2023/12/02 14:15:06;;;;;;;;;;;;;;;;;;4935419;28;19922;-94
2023/12/02 14:17:32;;;;;;;;;;;;;;;;;;4941009;29;19923;-95
2023/12/02 14:19:59;;;;;;;;;;;;;;;;;;4940513;28;19923;-94
2023/12/02 14:22:25;;;;;;;;;;;;;;;;;;4942055;29;20392;-96
2023/12/02 14:24:51;;;;;;;;;;;;;;;;;;4945233;28;19922;-94
2023/12/02 14:27:23;;;;;;;;;;;;;;;;;;4959847;28;19910;-94
2023/12/02 14:29:49;;;;;;;;;;;;;;;;;;4957773;28;19922;-93
2023/12/02 14:32:15;;;;;;;;;;;;;;;;;;4955103;29;19966;-93
2023/12/02 14:34:42;;;;;;;;;;;;;;;;;;4977709;28;19960;-93
2023/12/02 14:37:07;;;;;;;;;;;;;;;;;;4955222;28;19907;-93
2023/12/02 14:39:33;;;;;;;;;;;;;;;;;;4958307;28;20279;-94
2023/12/02 14:41:59;;;;;;;;;;;;;;;;;;4955641;28;19926;-93
2023/12/02 14:44:25;;;;;;;;;;;;;;;;;;4959810;28;19961;-93
2023/12/02 14:46:51;;;;;;;;;;;;;;;;;;4962660;28;19902;-94
2023/12/02 14:49:17;;;;;;;;;;;;;;;;;;4965217;29;19910;-93
2023/12/02 14:51:43;;;;;;;;;;;;;;;;;;4974297;28;19942;-93
2023/12/02 14:54:10;;;;;;;;;;;;;;;;;;4959459;28;19961;-94
2023/12/02 14:56:40;;;;;;;;;;;;;;;;;;4957195;28;20248;-94
2023/12/02 14:59:06;;;;;;;;;;;;;;;;;;4959332;28;19926;-94
2023/12/02 15:01:31;;;;;;;;;;;;;;;;;;4955757;28;19963;-95
2023/12/02 15:03:57;;;;;;;;;;;;;;;;;;4959272;28;20214;-95
2023/12/02 15:06:26;;;;;;;;;;;;;;;;;;4941179;28;19984;-93
2023/12/02 15:08:51;;;;;;;;;;;;;;;;;;4948206;28;19918;-94
2023/12/02 15:11:18;;;;;;;;;;;;;;;;;;4954073;28;19922;-95
2023/12/02 15:13:44;;;;;;;;;;;;;;;;;;4969368;28;19994;-94
2023/12/02 15:16:13;;;;;;;;;;;;;;;;;;4968309;28;19942;-94
2023/12/02 15:18:39;;;;;;;;;;;;;;;;;;4953669;29;19997;-94
2023/12/02 15:21:05;;;;;;;;;;;;;;;;;;4953081;28;19923;-93
2023/12/02 15:23:30;;;;;;;;;;;;;;;;;;4954748;29;19919;-95
2023/12/02 15:25:56;;;;;;;;;;;;;;;;;;4958300;28;19914;-93
2023/12/02 15:28:22;;;;;;;;;;;;;;;;;;4938914;28;19918;-92
2023/12/02 15:30:48;;;;;;;;;;;;;;;;;;4939202;29;19918;-92
2023/12/02 15:33:17;;;;;;;;;;;;;;;;;;4937120;29;19938;-92
2023/12/02 15:35:43;;;;;;;;;;;;;;;;;;4940194;29;19934;-92
2023/12/02 15:38:09;;;;;;;;;;;;;;;;;;4947972;28;19930;-92
2023/12/02 15:40:35;;;;;;;;;;;;;;;;;;4938095;29;19911;-93
2023/12/02 15:43:01;;;;;;;;;;;;;;;;;;4958079;28;19921;-92
2023/12/02 15:45:27;;;;;;;;;;;;;;;;;;4934345;28;19915;-93
2023/12/02 15:47:53;;;;;;;;;;;;;;;;;;4937085;28;19915;-94
2023/12/02 15:50:21;;;;;;;;;;;;;;;;;;4933252;29;19914;-95
2023/12/02 15:52:47;;;;;;;;;;;;;;;;;;4933828;28;19922;-92
2023/12/02 15:55:13;;;;;;;;;;;;;;;;;;4929386;28;19941;-92
2023/12/02 15:57:42;;;;;;;;;;;;;;;;;;4926353;28;19918;-91
2023/12/02 16:00:14;;;;;;;;;;;;;;;;;;4931422;29;19914;-93
2023/12/02 16:02:40;;;;;;;;;;;;;;;;;;4930453;28;20331;-92
2023/12/02 16:05:07;;;;;;;;;;;;;;;;;;4930341;28;19921;-92
2023/12/02 16:07:33;;;;;;;;;;;;;;;;;;4935028;28;20458;-91
2023/12/02 16:09:59;;;;;;;;;;;;;;;;;;4949758;28;20021;-91
2023/12/02 16:12:26;;;;;;;;;;;;;;;;;;4947676;28;19918;-91
2023/12/02 16:14:53;;;;;;;;;;;;;;;;;;4937684;28;19994;-92
2023/12/02 16:17:19;;;;;;;;;;;;;;;;;;4940619;28;20798;-91
2023/12/02 16:19:45;;;;;;;;;;;;;;;;;;4956360;28;19922;-91
2023/12/02 16:22:11;;;;;;;;;;;;;;;;;;4938933;28;19915;-94
2023/12/02 16:24:37;;;;;;;;;;;;;;;;;;4934282;28;19915;-92
2023/12/02 16:27:03;;;;;;;;;;;;;;;;;;4935026;28;19910;-91
2023/12/02 16:29:29;;;;;;;;;;;;;;;;;;4947068;28;20028;-92
2023/12/02 16:31:55;;;;;;;;;;;;;;;;;;4932638;28;20009;-92
2023/12/02 16:34:20;;;;;;;;;;;;;;;;;;4934939;28;19918;-92
2023/12/02 16:36:51;;;;;;;;;;;;;;;;;;4935058;28;19919;-93
2023/12/02 16:39:17;;;;;;;;;;;;;;;;;;4936840;28;19922;-92
2023/12/02 16:41:43;;;;;;;;;;;;;;;;;;4932096;28;20568;-91
2023/12/02 16:44:09;;;;;;;;;;;;;;;;;;4946963;28;20080;-93
2023/12/02 16:46:38;;;;;;;;;;;;;;;;;;4934204;28;19922;-94
2023/12/02 16:49:04;;;;;;;;;;;;;;;;;;4933320;28;19918;-94
2023/12/02 16:51:31;;;;;;;;;;;;;;;;;;4934437;28;19923;-94
2023/12/02 16:53:57;;;;;;;;;;;;;;;;;;4932442;28;19968;-94